Time;durP1;ratioP1;P1;durP2;ratioP2;P2;SDS_P1;SDS_P2;PMS_P1;PMS_P2;Temp;Humidity;BMP_temperature;BMP_pressure;BME280_temperature;BME280_humidity;BME280_pressure;Samples;Min_cycle;Max_cycle;Signal;HPM_P1;HPM_P2
2021/11/11 00:01:50;;;;;;;3.95;3.42;;;;;;;0.82;100.00;99487.22;5014578;28;20026;-72
2021/11/11 00:04:19;;;;;;;7.88;3.60;;;;;;;1.12;100.00;99492.44;5014982;28;20049;-72
2021/11/11 00:06:45;;;;;;;5.13;2.00;;;;;;;1.10;100.00;99484.72;5014904;28;20502;-72
2021/11/11 00:09:10;;;;;;;1.50;1.50;;;;;;;1.27;100.00;99485.25;5021543;28;20265;-72
2021/11/11 00:11:35;;;;;;;3.05;2.85;;;;;;;1.36;100.00;99493.19;5014594;28;20026;-72
2021/11/11 00:14:01;;;;;;;4.32;2.53;;;;;;;1.43;100.00;99489.13;5013806;28;20022;-72
2021/11/11 00:16:26;;;;;;;14.02;1.95;;;;;;;1.54;100.00;99492.84;5010996;28;20126;-71
2021/11/11 00:18:51;;;;;;;2.38;2.28;;;;;;;1.46;100.00;99486.69;5009975;28;20022;-71
2021/11/11 00:21:17;;;;;;;3.13;2.92;;;;;;;1.37;100.00;99483.84;5014408;28;20105;-71
2021/11/11 00:23:43;;;;;;;3.08;2.88;;;;;;;1.29;100.00;99476.81;5014518;28;20114;-74
2021/11/11 00:26:08;;;;;;;4.00;2.97;;;;;;;1.13;100.00;99477.19;5014380;28;20033;-74
2021/11/11 00:28:34;;;;;;;4.75;4.25;;;;;;;1.20;100.00;99476.53;5014520;28;20034;-71
2021/11/11 00:31:00;;;;;;;4.57;4.10;;;;;;;1.19;100.00;99474.81;5014453;28;20533;-72
2021/11/11 00:33:25;;;;;;;4.35;3.40;;;;;;;1.21;100.00;99474.84;5014181;28;20022;-72
2021/11/11 00:35:51;;;;;;;9.13;5.22;;;;;;;1.29;100.00;99475.94;5014397;28;20405;-71
2021/11/11 00:38:16;;;;;;;3.13;2.85;;;;;;;1.59;100.00;99460.66;5013965;28;20026;-74
2021/11/11 00:40:41;;;;;;;4.75;3.72;;;;;;;1.47;100.00;99466.28;5014367;28;20109;-71
2021/11/11 00:43:07;;;;;;;5.30;3.47;;;;;;;1.60;100.00;99467.53;5014166;28;20028;-72
2021/11/11 00:45:33;;;;;;;4.13;3.72;;;;;;;1.52;100.00;99468.97;5013781;28;20029;-71
2021/11/11 00:47:59;;;;;;;2.20;2.03;;;;;;;1.33;100.00;99466.69;5006203;28;20026;-75
2021/11/11 00:50:29;;;;;;;11.38;2.00;;;;;;;1.34;100.00;99459.09;5014114;28;20037;-72
2021/11/11 00:52:54;;;;;;;5.20;3.65;;;;;;;1.18;100.00;99467.97;5013805;28;20029;-72
2021/11/11 00:55:21;;;;;;;3.38;3.03;;;;;;;1.09;100.00;99471.94;5013742;28;20372;-74
2021/11/11 00:57:47;;;;;;;5.60;2.50;;;;;;;0.95;100.00;99474.91;5013963;28;20577;-71
2021/11/11 05:16:08;;;;;;;2.03;1.90;;;;;;;0.67;100.00;99468.06;5625797;23;20509;-71
2021/11/11 05:18:34;;;;;;;1.98;1.88;;;;;;;0.48;100.00;99470.81;4936176;29;20048;-71
2021/11/11 05:20:59;;;;;;;2.33;2.20;;;;;;;0.50;100.00;99469.22;4936136;29;20020;-71
2021/11/11 05:23:25;;;;;;;1.73;1.67;;;;;;;0.44;100.00;99464.78;4935919;29;20622;-71
2021/11/11 05:25:51;;;;;;;0.77;0.77;;;;;;;0.46;100.00;99464.81;4936087;29;20405;-71
2021/11/11 05:28:16;;;;;;;2.95;1.33;;;;;;;0.54;100.00;99459.97;4936977;29;20030;-76
2021/11/11 05:30:42;;;;;;;1.58;1.52;;;;;;;0.33;100.00;99460.97;4934872;29;20431;-76
2021/11/11 05:33:08;;;;;;;2.17;2.08;;;;;;;0.54;100.00;99465.94;4935890;29;20027;-76
2021/11/11 05:35:33;;;;;;;3.15;2.85;;;;;;;0.45;100.00;99470.75;4909417;28;20163;-76
2021/11/11 05:37:59;;;;;;;1.10;1.10;;;;;;;0.35;100.00;99479.75;4941604;29;20114;-76
2021/11/11 05:40:25;;;;;;;4.68;4.30;;;;;;;0.42;100.00;99470.63;4935772;29;20036;-75
2021/11/11 05:42:51;;;;;;;2.10;1.95;;;;;;;0.24;100.00;99476.84;4934790;29;20111;-76
2021/11/11 05:45:17;;;;;;;2.22;2.13;;;;;;;0.20;100.00;99477.56;4935079;29;20034;-81
2021/11/11 05:47:43;;;;;;;4.53;4.13;;;;;;;0.28;100.00;99471.84;4935774;29;20032;-80
2021/11/11 05:50:10;;;;;;;2.60;2.50;;;;;;;0.29;100.00;99468.47;4935682;29;20499;-80
2021/11/11 05:52:36;;;;;;;2.40;2.30;;;;;;;0.33;100.00;99471.19;4935248;29;20027;-79
2021/11/11 05:55:03;;;;;;;2.92;2.47;;;;;;;0.34;100.00;99460.19;4935425;29;20440;-80
2021/11/11 05:57:29;;;;;;;2.45;2.17;;;;;;;0.31;100.00;99446.47;4935309;29;20043;-80
2021/11/11 05:59:55;;;;;;;4.13;3.72;;;;;;;0.19;100.00;99458.00;4935493;29;20028;-80
2021/11/11 06:02:21;;;;;;;2.15;2.05;;;;;;;0.27;100.00;99462.47;4935155;29;20107;-80
2021/11/11 06:04:46;;;;;;;2.08;1.98;;;;;;;0.12;100.00;99455.16;4935281;29;20157;-79
2021/11/11 06:07:11;;;;;;;1.90;1.80;;;;;;;0.14;100.00;99454.38;4934118;29;20028;-80
2021/11/11 06:09:37;;;;;;;2.72;2.53;;;;;;;0.10;100.00;99456.81;4935284;29;20038;-80
2021/11/11 06:12:03;;;;;;;2.85;2.65;;;;;;;0.17;100.00;99462.16;4935095;29;20028;-79
2021/11/11 06:14:29;;;;;;;3.40;3.10;;;;;;;0.28;100.00;99462.50;4935220;29;20438;-79
2021/11/11 06:16:55;;;;;;;1.63;1.55;;;;;;;0.24;100.00;99461.56;4934421;29;20023;-81
2021/11/11 06:19:20;;;;;;;2.28;2.17;;;;;;;0.25;100.00;99473.47;4935029;29;20026;-81
2021/11/11 06:21:46;;;;;;;3.30;3.03;;;;;;;0.28;100.00;99479.47;4934848;29;20023;-80
2021/11/11 06:24:14;;;;;;;3.38;3.17;;;;;;;0.17;100.00;99487.63;4935070;29;20035;-79
2021/11/11 06:26:39;;;;;;;2.78;2.25;;;;;;;0.11;100.00;99484.00;4934944;29;20525;-79
2021/11/11 06:29:05;;;;;;;2.60;2.40;;;;;;;0.01;100.00;99480.28;4935102;29;20114;-79
2021/11/11 06:31:30;;;;;;;3.00;2.72;;;;;;;0.02;100.00;99489.66;4934729;29;20023;-79
2021/11/11 06:33:56;;;;;;;2.35;2.15;;;;;;;-0.05;100.00;99492.78;4934993;29;20028;-79
2021/11/11 06:36:21;;;;;;;4.30;2.83;;;;;;;0.06;100.00;99491.50;4934804;29;20032;-80
2021/11/11 06:38:47;;;;;;;3.08;2.78;;;;;;;0.09;100.00;99501.78;4933689;29;20457;-80
2021/11/11 06:41:12;;;;;;;3.00;2.80;;;;;;;0.21;100.00;99497.13;4934842;29;20493;-80
2021/11/11 06:43:38;;;;;;;2.28;1.65;;;;;;;0.13;100.00;99500.22;4934844;29;20030;-80
2021/11/11 06:46:07;;;;;;;2.72;2.53;;;;;;;0.12;100.00;99491.69;4934278;29;20481;-80
2021/11/11 06:48:33;;;;;;;3.20;2.90;;;;;;;0.10;100.00;99488.25;4934579;29;20174;-80
2021/11/11 06:50:59;;;;;;;2.88;2.67;;;;;;;0.11;100.00;99494.19;4933586;29;20035;-80
2021/11/11 06:53:24;;;;;;;7.50;3.47;;;;;;;0.15;100.00;99491.81;4934291;29;20027;-79
2021/11/11 06:55:50;;;;;;;1.58;1.55;;;;;;;0.22;100.00;99500.53;4934744;29;20071;-80
2021/11/11 06:58:20;;;;;;;2.22;2.13;;;;;;;0.21;100.00;99501.34;4934742;29;20027;-79
2021/11/11 07:00:45;;;;;;;2.47;2.28;;;;;;;0.22;100.00;99500.53;4934736;29;20028;-79
2021/11/11 07:03:11;;;;;;;5.80;4.75;;;;;;;0.27;100.00;99508.34;4934319;29;20028;-80
2021/11/11 07:05:36;;;;;;;3.40;3.10;;;;;;;0.33;100.00;99516.19;4934582;29;20039;-80
2021/11/11 07:08:05;;;;;;;2.63;2.53;;;;;;;0.23;100.00;99515.00;4934574;29;20035;-79
2021/11/11 07:10:31;;;;;;;5.90;2.23;;;;;;;0.18;100.00;99512.28;4934637;29;20039;-80
2021/11/11 07:12:56;;;;;;;5.07;4.35;;;;;;;0.24;100.00;99504.88;4933266;29;20272;-79
2021/11/11 07:15:21;;;;;;;2.90;2.63;;;;;;;0.23;100.00;99500.56;4933934;29;20051;-82
2021/11/11 07:17:47;;;;;;;2.25;2.15;;;;;;;0.34;100.00;99502.63;4934353;29;20034;-82
2021/11/11 07:20:15;;;;;;;3.13;2.80;;;;;;;0.29;100.00;99496.50;4934630;29;20055;-82
2021/11/11 07:22:43;;;;;;;2.45;2.30;;;;;;;0.49;100.00;99493.84;4934299;29;20083;-82
2021/11/11 07:25:09;;;;;;;4.43;4.13;;;;;;;0.54;100.00;99490.56;4934409;29;20074;-79
2021/11/11 07:27:35;;;;;;;2.47;2.10;;;;;;;0.59;100.00;99500.09;4934497;29;20502;-82
2021/11/11 07:30:04;;;;;;;2.05;1.75;;;;;;;0.67;100.00;99503.75;4934379;29;20031;-81
2021/11/11 07:32:30;;;;;;;2.53;2.43;;;;;;;0.62;100.00;99494.22;4934284;29;20020;-82
2021/11/11 07:34:55;;;;;;;4.10;3.20;;;;;;;0.53;100.00;99507.53;4934385;29;20263;-82
2021/11/11 07:37:20;;;;;;;1.33;1.33;;;;;;;0.55;100.00;99505.06;4934337;29;20024;-75
2021/11/11 07:39:46;;;;;;;2.50;2.33;;;;;;;0.49;100.00;99498.06;4934313;29;20110;-77
2021/11/11 07:42:11;;;;;;;4.22;3.10;;;;;;;0.63;100.00;99496.84;4934207;29;20019;-75
2021/11/11 07:44:37;;;;;;;1.42;1.42;;;;;;;0.61;100.00;99512.91;4934283;29;20393;-74
2021/11/11 07:47:03;;;;;;;2.47;2.25;;;;;;;0.49;100.00;99514.22;4933710;29;20024;-75
2021/11/11 07:49:28;;;;;;;6.55;3.40;;;;;;;0.64;100.00;99513.88;4934156;29;20028;-75
2021/11/11 07:51:54;;;;;;;2.70;2.30;;;;;;;0.56;100.00;99515.28;4934104;29;20020;-75
2021/11/11 07:54:19;;;;;;;2.17;2.08;;;;;;;0.73;100.00;99509.09;4934138;29;20031;-75
2021/11/11 07:56:45;;;;;;;3.03;2.72;;;;;;;1.02;100.00;99511.72;4934186;29;20075;-75
2021/11/11 07:59:12;;;;;;;2.85;2.65;;;;;;;1.14;100.00;99519.72;4934263;29;20035;-75
2021/11/11 08:01:38;;;;;;;2.22;2.13;;;;;;;1.37;100.00;99520.44;4933918;29;20023;-75
2021/11/11 08:04:03;;;;;;;2.10;2.00;;;;;;;1.15;100.00;99529.13;4934222;29;20053;-74
2021/11/11 08:06:29;;;;;;;3.20;2.47;;;;;;;1.16;100.00;99529.97;4936177;29;20059;-75
2021/11/11 08:08:54;;;;;;;2.03;1.92;;;;;;;1.60;100.00;99539.03;4937567;29;20031;-75
2021/11/11 08:11:20;;;;;;;3.15;2.95;;;;;;;1.07;100.00;99539.94;4937294;29;20027;-75
2021/11/11 08:13:45;;;;;;;2.00;1.90;;;;;;;1.21;100.00;99549.75;4937356;29;20518;-75
2021/11/11 08:16:10;;;;;;;2.50;2.30;;;;;;;1.19;100.00;99546.25;4936597;29;20114;-74
2021/11/11 08:18:36;;;;;;;6.35;2.83;;;;;;;1.41;100.00;99546.94;4937307;29;20106;-74
2021/11/11 08:21:01;;;;;;;4.15;3.83;;;;;;;1.28;100.00;99546.56;4937187;29;20027;-80
2021/11/11 08:23:27;;;;;;;2.00;1.85;;;;;;;1.50;100.00;99534.47;4937398;29;20485;-80
2021/11/11 08:25:53;;;;;;;2.90;2.70;;;;;;;1.78;100.00;99541.25;4937119;29;20411;-80
2021/11/11 08:28:20;;;;;;;2.30;2.20;;;;;;;1.67;100.00;99540.94;4937177;29;20024;-80
2021/11/11 08:30:47;;;;;;;1.90;1.80;;;;;;;1.84;99.81;99543.09;4936999;29;20157;-80
2021/11/11 08:33:14;;;;;;;11.73;3.92;;;;;;;2.02;100.00;99556.41;4936994;29;20421;-80
2021/11/11 08:35:41;;;;;;;5.15;2.80;;;;;;;1.98;99.54;99557.16;4936978;29;20031;-80
2021/11/11 08:38:07;;;;;;;3.40;2.95;;;;;;;2.03;99.56;99551.38;4936923;29;20039;-80
2021/11/11 08:40:32;;;;;;;3.15;2.92;;;;;;;1.97;99.58;99555.41;4937000;29;20028;-80
2021/11/11 08:42:59;;;;;;;2.35;2.17;;;;;;;2.11;99.59;99549.00;4936563;29;20028;-80
2021/11/11 08:45:26;;;;;;;4.00;3.25;;;;;;;2.08;98.21;99548.94;4936293;29;20090;-80
2021/11/11 08:47:52;;;;;;;2.83;2.28;;;;;;;2.02;98.81;99553.84;4936650;29;20110;-80
2021/11/11 08:50:19;;;;;;;7.05;4.65;;;;;;;2.08;99.06;99558.28;4936112;29;20139;-80
2021/11/11 08:52:48;;;;;;;5.55;3.65;;;;;;;2.30;99.42;99565.72;4917562;29;20028;-80
2021/11/11 08:55:19;;;;;;;3.10;2.83;;;;;;;2.60;99.14;99565.69;4917637;29;20087;-80
2021/11/11 08:57:45;;;;;;;2.58;2.42;;;;;;;2.69;97.49;99555.69;4917490;29;20028;-80
2021/11/11 09:00:15;;;;;;;5.22;3.95;;;;;;;2.78;96.63;99558.50;4917714;29;20039;-80
2021/11/11 09:02:41;;;;;;;;;;;;;;;2.98;95.06;99553.00;4917744;29;20362;-80
2021/11/11 09:05:07;;;;;;;2.55;2.40;;;;;;;2.90;94.36;99549.38;4917486;29;19963;-80
2021/11/11 09:07:33;;;;;;;6.40;5.80;;;;;;;2.75;96.28;99558.41;4917429;29;20493;-76
2021/11/11 09:09:58;;;;;;;4.55;4.25;;;;;;;2.73;96.63;99562.63;4917481;29;20537;-75
2021/11/11 09:12:25;;;;;;;5.68;3.30;;;;;;;2.99;96.72;99555.59;4917156;29;20024;-75
2021/11/11 09:14:50;;;;;;;3.47;3.20;;;;;;;3.13;95.15;99558.50;4917368;29;20398;-76
2021/11/11 09:17:16;;;;;;;2.25;2.08;;;;;;;3.22;93.16;99556.16;4916803;29;20038;-75
2021/11/11 09:19:41;;;;;;;2.90;2.50;;;;;;;3.35;92.16;99565.03;4917169;29;20047;-76
2021/11/11 09:22:07;;;;;;;3.78;3.08;;;;;;;3.64;91.59;99565.69;4917030;29;20028;-80
2021/11/11 09:24:32;;;;;;;7.07;5.65;;;;;;;3.84;92.30;99566.13;4917227;29;20528;-80
2021/11/11 09:26:58;;;;;;;3.00;2.80;;;;;;;3.78;90.48;99566.84;4917019;29;20024;-80
2021/11/11 09:29:23;;;;;;;3.17;2.60;;;;;;;3.68;89.84;99572.63;4917237;29;20024;-79
2021/11/11 09:31:49;;;;;;;13.82;7.70;;;;;;;3.54;90.96;99569.72;4916884;29;20031;-79
2021/11/11 09:34:15;;;;;;;3.75;3.40;;;;;;;3.56;91.50;99572.31;4917333;29;20150;-80
2021/11/11 09:36:40;;;;;;;2.45;1.73;;;;;;;3.34;91.77;99578.66;4916895;29;20504;-80
2021/11/11 09:39:06;;;;;;;4.50;4.15;;;;;;;3.47;93.10;99585.78;4916809;29;20024;-80
2021/11/11 09:41:33;;;;;;;3.80;3.47;;;;;;;3.58;93.21;99578.38;4916423;29;20285;-80
2021/11/11 09:43:59;;;;;;;4.25;3.88;;;;;;;3.64;92.30;99578.50;4916573;29;20060;-80
2021/11/11 09:46:24;;;;;;;4.82;3.65;;;;;;;3.54;92.13;99581.69;4916500;29;20069;-75
2021/11/11 09:48:50;;;;;;;3.50;2.60;;;;;;;3.42;93.35;99582.25;4916586;29;20028;-76
2021/11/11 09:51:19;;;;;;;1.73;1.65;;;;;;;3.38;94.33;99584.69;4916425;29;20040;-75
2021/11/11 09:59:11;;;;;;;8.88;3.53;;;;;;;3.80;93.91;99575.44;4916817;29;20039;-75
2021/11/11 10:01:36;;;;;;;5.70;3.47;;;;;;;4.01;92.86;99572.47;4916158;29;20032;-75
2021/11/11 10:04:02;;;;;;;2.10;2.00;;;;;;;3.88;92.04;99572.19;4916432;29;20091;-75
2021/11/11 10:06:28;;;;;;;4.75;2.85;;;;;;;3.63;92.78;99576.78;4916137;29;20031;-75
2021/11/11 10:08:55;;;;;;;2.50;2.30;;;;;;;3.68;93.90;99585.44;4916517;29;20035;-75
2021/11/11 10:11:26;;;;;;;3.83;3.53;;;;;;;3.72;93.64;99581.22;4916032;29;20050;-75
2021/11/11 10:14:04;;;;;;;2.17;2.08;;;;;;;4.08;92.17;99588.84;4916315;29;20024;-75
2021/11/11 10:16:33;;;;;;;5.90;3.83;;;;;;;4.61;89.48;99583.91;4915776;29;20107;-75
2021/11/11 10:19:01;;;;;;;3.30;3.03;;;;;;;4.65;89.33;99588.28;4916013;29;20185;-75
2021/11/11 10:21:37;;;;;;;2.97;2.78;;;;;;;4.57;88.57;99583.00;4916056;29;20032;-76
2021/11/11 10:24:31;;;;;;;2.50;2.30;;;;;;;4.92;86.62;99572.50;4909883;29;20035;-75
2021/11/11 10:33:13;;;;;;;3.60;3.33;;;;;;;4.69;87.14;99561.84;4928514;29;20102;-74
2021/11/11 10:35:43;;;;;;;3.25;1.98;;;;;;;4.81;88.68;99567.19;4935069;28;20036;-73
2021/11/11 10:38:21;;;;;;;6.90;3.33;;;;;;;4.77;88.39;99567.94;4934986;29;20412;-73
2021/11/11 10:40:52;;;;;;;7.85;6.82;;;;;;;4.81;89.29;99563.75;4934706;29;20028;-72
2021/11/11 10:43:24;;;;;;;6.50;5.85;;;;;;;5.02;87.68;99558.09;4934784;29;20066;-71
2021/11/11 10:45:51;;;;;;;2.45;2.35;;;;;;;5.18;87.58;99552.41;4928599;23;20454;-75
2021/11/11 10:48:22;;;;;;;4.25;3.65;;;;;;;6.22;83.58;99551.31;4897005;29;20231;-75
2021/11/11 10:50:52;;;;;;;5.40;4.25;;;;;;;7.29;77.64;99543.75;4896896;29;20454;-74
2021/11/11 10:53:22;;;;;;;;;;;;;;;8.70;71.54;99533.28;4897428;29;20080;-75
2021/11/11 10:55:50;;;;;;;4.35;3.40;;;;;;;9.43;69.34;99535.03;4906328;29;19912;-76
2021/11/11 10:58:18;;;;;;;7.60;4.10;;;;;;;10.54;63.57;99538.13;4915625;29;20040;-76
2021/11/11 11:00:54;;;;;;;7.63;5.70;;;;;;;9.09;69.13;99535.88;4913966;29;20145;-76
2021/11/11 11:03:32;;;;;;;3.40;3.10;;;;;;;10.36;64.78;99526.13;4886831;29;20054;-78
2021/11/11 11:06:04;;;;;;;5.28;3.80;;;;;;;12.30;58.24;99526.16;4888380;29;20043;-78
2021/11/11 11:08:34;;;;;;;3.83;3.40;;;;;;;12.21;57.01;99523.66;4934567;29;20126;-79
2021/11/11 11:11:06;;;;;;;6.32;4.82;;;;;;;11.06;61.68;99541.22;4934404;29;20039;-79
2021/11/11 11:13:39;;;;;;;8.15;4.45;;;;;;;13.36;52.94;99523.69;4934523;29;20031;-75
2021/11/11 11:16:10;;;;;;;13.27;4.90;;;;;;;12.88;54.26;99514.06;4934515;29;20107;-75
2021/11/11 11:18:39;;;;;;;6.72;4.43;;;;;;;13.82;52.22;99506.34;4934601;29;20057;-75
2021/11/11 11:21:11;;;;;;;4.93;4.32;;;;;;;13.25;52.28;99506.56;4934272;29;20028;-75
2021/11/11 11:23:42;;;;;;;6.15;3.50;;;;;;;13.75;52.70;99515.19;4930148;29;20115;-77
2021/11/11 11:26:22;;;;;;;9.00;5.03;;;;;;;14.76;49.74;99519.19;4923250;29;20442;-76
2021/11/11 11:29:04;;;;;;;11.15;4.65;;;;;;;15.65;46.99;99517.84;4915358;29;20034;-77
2021/11/11 11:31:53;;;;;;;11.23;4.50;;;;;;;14.56;50.34;99519.63;4923530;29;20111;-75
2021/11/11 11:34:24;;;;;;;6.83;4.27;;;;;;;15.63;46.38;99517.03;4896632;29;20154;-75
2021/11/11 11:37:05;;;;;;;6.43;3.92;;;;;;;15.04;48.24;99514.16;4896634;29;20261;-75
2021/11/11 11:39:36;;;;;;;6.38;3.88;;;;;;;15.99;46.69;99506.47;4896492;29;20170;-75
2021/11/11 11:42:08;;;;;;;10.02;4.43;;;;;;;15.02;48.84;99515.94;4899492;29;20462;-76
2021/11/11 11:44:55;;;;;;;9.63;4.57;;;;;;;15.86;46.61;99505.13;4900116;29;20116;-75
2021/11/11 11:47:32;;;;;;;6.63;4.10;;;;;;;16.27;45.16;99506.53;4900061;29;20029;-75
2021/11/11 11:50:02;;;;;;;5.55;3.92;;;;;;;16.66;44.61;99499.22;4899969;29;20104;-75
2021/11/11 11:52:31;;;;;;;4.05;3.65;;;;;;;17.77;41.89;99490.38;4900011;29;20031;-75
2021/11/11 11:55:08;;;;;;;6.78;4.75;;;;;;;16.69;44.09;99487.81;4916160;29;20106;-75
2021/11/11 12:10:53;;;;;;;9.70;4.57;;;;;;;11.92;56.26;99492.84;4937315;29;20020;-80
2021/11/11 12:13:21;;;;;;;5.60;3.40;;;;;;;11.39;58.47;99495.09;4936070;29;20090;-79
2021/11/11 12:15:59;;;;;;;14.07;4.87;;;;;;;10.28;62.08;99489.03;4937577;29;20043;-75
2021/11/11 12:40:29;;;;;;;6.53;4.53;;;;;;;9.04;69.18;99454.88;4937312;29;20054;-79
2021/11/11 12:43:00;;;;;;;4.55;3.58;;;;;;;8.97;70.33;99466.97;4937050;29;20032;-79
2021/11/11 12:45:31;;;;;;;4.25;3.42;;;;;;;8.93;69.16;99463.50;4936605;29;20083;-79
2021/11/11 12:48:01;;;;;;;5.10;4.30;;;;;;;8.30;71.47;99456.53;4936815;29;20036;-80
2021/11/11 12:50:28;;;;;;;7.03;4.32;;;;;;;8.08;72.67;99453.06;4936544;29;20059;-80
2021/11/11 12:53:09;;;;;;;4.32;3.90;;;;;;;7.83;74.19;99455.56;4936272;29;20083;-75
2021/11/11 12:55:35;;;;;;;5.50;4.57;;;;;;;7.95;74.20;99455.59;4925720;29;20032;-75
2021/11/11 12:58:03;;;;;;;11.77;5.22;;;;;;;7.83;75.07;99455.56;4917920;29;20473;-75
2021/11/11 13:00:50;;;;;;;5.38;3.90;;;;;;;7.72;76.18;99452.06;4924627;29;20038;-75
2021/11/11 13:03:17;;;;;;;4.28;3.90;;;;;;;8.18;74.36;99441.91;4925359;29;20063;-75
2021/11/11 13:05:54;;;;;;;6.93;5.53;;;;;;;8.16;74.53;99441.00;4936587;29;20069;-75
2021/11/11 13:08:48;;;;;;;5.80;3.97;;;;;;;8.13;73.76;99444.47;4936588;29;20123;-75
2021/11/11 13:11:13;;;;;;;5.70;5.13;;;;;;;7.88;74.69;99443.53;4936140;29;20481;-75
2021/11/11 13:13:39;;;;;;;6.78;3.65;;;;;;;7.79;75.51;99442.63;4936271;29;20030;-75
2021/11/11 13:16:14;;;;;;;4.28;3.88;;;;;;;7.73;76.10;99440.88;4936189;29;20024;-74
2021/11/11 13:18:40;;;;;;;4.85;4.28;;;;;;;7.75;76.29;99441.75;4936213;29;20058;-75
2021/11/11 13:21:13;;;;;;;7.55;5.88;;;;;;;7.56;77.08;99450.28;4936078;29;20027;-75
2021/11/11 13:23:46;;;;;;;7.78;4.90;;;;;;;7.73;76.74;99458.94;4932838;29;20035;-75
2021/11/11 15:14:24;;;;;;;3.30;2.97;;;;;;;4.02;95.99;99514.38;4934421;29;19917;-75
2021/11/11 15:18:35;;;;;;;5.00;3.95;;;;;;;4.08;96.71;99515.34;4938637;29;20031;-75
2021/11/11 16:00:03;;;;;;;10.60;7.55;;;;;;;3.54;100.00;99525.31;4906996;29;20020;-75
2021/11/11 16:26:46;;;;;;;8.98;5.85;;;;;;;2.95;100.00;99537.56;4926830;29;20043;-75
2021/11/11 16:29:12;;;;;;;4.97;4.53;;;;;;;3.15;100.00;99546.63;4933411;29;20036;-75
2021/11/11 16:31:39;;;;;;;6.20;4.63;;;;;;;2.94;100.00;99551.19;4926253;29;20024;-75
2021/11/11 16:34:04;;;;;;;5.95;5.22;;;;;;;2.94;100.00;99549.50;4937234;29;20062;-75
2021/11/11 16:36:31;;;;;;;3.83;3.50;;;;;;;3.15;100.00;99551.75;4935623;29;20059;-75
2021/11/11 16:38:57;;;;;;;3.38;3.17;;;;;;;3.12;100.00;99556.78;4936808;29;20027;-75
2021/11/11 16:41:23;;;;;;;8.30;5.78;;;;;;;3.01;100.00;99553.09;4924049;29;20524;-75
2021/11/11 16:43:49;;;;;;;7.15;5.25;;;;;;;2.95;100.00;99558.03;4911058;29;20066;-75
2021/11/11 16:46:15;;;;;;;5.38;4.35;;;;;;;2.92;100.00;99563.97;4914314;29;20054;-76
2021/11/11 16:48:41;;;;;;;8.93;5.65;;;;;;;3.01;100.00;99561.66;4936888;29;20032;-76
2021/11/11 16:51:10;;;;;;;7.75;5.85;;;;;;;3.02;100.00;99558.25;4936655;29;20055;-75
2021/11/11 16:53:36;;;;;;;7.93;3.88;;;;;;;3.00;100.00;99556.50;4933795;29;20390;-79
2021/11/11 16:56:03;;;;;;;5.22;4.72;;;;;;;2.92;100.00;99558.00;4925364;29;20080;-79
2021/11/11 16:58:29;;;;;;;4.85;4.40;;;;;;;2.84;100.00;99571.44;4917447;29;20035;-79
2021/11/11 17:00:54;;;;;;;5.13;4.65;;;;;;;2.79;100.00;99573.00;4925136;29;20409;-78
2021/11/11 17:03:21;;;;;;;10.85;5.78;;;;;;;2.75;100.00;99566.09;4917396;29;20024;-75
2021/11/11 17:05:47;;;;;;;5.63;4.72;;;;;;;2.73;100.00;99572.88;4868298;29;20043;-75
2021/11/11 17:08:13;;;;;;;8.85;5.32;;;;;;;2.72;100.00;99571.13;4917507;29;20466;-78
2021/11/11 17:10:39;;;;;;;7.78;5.97;;;;;;;2.73;100.00;99580.53;4917141;29;20080;-75
2021/11/11 17:13:05;;;;;;;4.22;3.85;;;;;;;2.76;100.00;99572.97;4917329;29;20091;-75
2021/11/11 17:15:34;;;;;;;5.82;5.07;;;;;;;2.68;100.00;99569.31;4917278;29;20028;-75
2021/11/11 17:18:00;;;;;;;5.80;5.28;;;;;;;2.83;100.00;99564.59;4917290;29;20025;-75
2021/11/11 17:20:28;;;;;;;6.75;4.32;;;;;;;2.76;100.00;99567.84;4869237;29;20059;-75
2021/11/11 17:22:57;;;;;;;11.85;6.10;;;;;;;2.91;100.00;99576.75;4820170;29;20165;-79
2021/11/11 17:25:33;;;;;;;7.00;4.20;;;;;;;2.73;100.00;99577.97;4802826;29;20041;-78
2021/11/11 17:28:15;;;;;;;5.68;4.13;;;;;;;2.77;100.00;99571.25;4843904;29;20062;-79
2021/11/11 17:30:46;;;;;;;8.77;5.53;;;;;;;2.78;100.00;99566.19;4784348;29;20039;-79
2021/11/11 17:33:13;;;;;;;4.93;4.40;;;;;;;2.67;100.00;99572.72;4830794;29;20568;-79
2021/11/11 17:35:39;;;;;;;6.47;5.60;;;;;;;2.64;100.00;99575.19;4797570;29;20055;-79
2021/11/11 17:38:05;;;;;;;6.07;5.25;;;;;;;2.68;100.00;99574.44;4837995;29;20398;-79
2021/11/11 17:40:32;;;;;;;8.43;6.80;;;;;;;2.65;100.00;99576.91;4796370;29;20062;-79
2021/11/11 17:42:58;;;;;;;7.75;5.85;;;;;;;2.50;100.00;99579.06;4838514;29;20109;-77
2021/11/11 17:45:38;;;;;;;6.53;5.18;;;;;;;2.66;100.00;99578.66;4935438;29;20036;-74
2021/11/11 17:48:05;;;;;;;8.35;6.03;;;;;;;2.54;100.00;99570.66;4935816;29;20032;-76
2021/11/11 17:50:33;;;;;;;5.22;4.22;;;;;;;2.59;100.00;99574.19;4935627;29;20452;-79
2021/11/11 17:53:10;;;;;;;7.15;3.88;;;;;;;2.62;100.00;99576.84;4935562;29;20020;-79
2021/11/11 17:55:40;;;;;;;3.47;3.13;;;;;;;2.69;100.00;99572.75;4925082;29;20108;-79
2021/11/11 17:58:09;;;;;;;6.65;5.40;;;;;;;2.70;100.00;99571.91;4935535;29;20036;-75
2021/11/11 18:00:38;;;;;;;5.72;4.55;;;;;;;2.49;100.00;99577.34;4926968;29;20027;-75
2021/11/11 18:03:04;;;;;;;4.70;4.30;;;;;;;2.42;100.00;99586.53;4928117;29;20035;-74
2021/11/11 18:05:32;;;;;;;4.78;4.28;;;;;;;2.52;100.00;99582.53;4935467;29;20484;-74
2021/11/11 18:08:16;;;;;;;5.32;4.10;;;;;;;2.47;100.00;99586.66;4935313;29;20031;-74
2021/11/11 18:10:42;;;;;;;11.18;6.32;;;;;;;2.48;100.00;99586.69;4935246;29;20094;-79
2021/11/11 18:13:13;;;;;;;4.38;3.97;;;;;;;2.66;100.00;99591.47;4935248;29;20023;-74
2021/11/11 18:15:41;;;;;;;5.43;5.00;;;;;;;2.96;100.00;99595.63;4935128;29;20031;-75
2021/11/11 18:18:08;;;;;;;8.85;4.25;;;;;;;2.76;100.00;99592.56;4933975;29;20067;-75
2021/11/11 18:20:34;;;;;;;8.38;7.07;;;;;;;2.75;100.00;99596.78;4935034;29;20500;-74
2021/11/11 18:23:00;;;;;;;5.25;4.78;;;;;;;2.62;100.00;99594.75;4935019;29;20083;-74
2021/11/11 18:25:27;;;;;;;8.25;6.10;;;;;;;2.70;100.00;99598.34;4925569;29;20477;-75
2021/11/11 18:27:54;;;;;;;7.18;4.25;;;;;;;2.70;100.00;99598.34;4934328;29;20031;-75
2021/11/11 18:30:25;;;;;;;3.33;3.13;;;;;;;2.84;100.00;99596.16;4927992;29;20019;-75
2021/11/11 18:33:15;;;;;;;9.75;7.28;;;;;;;2.98;100.00;99589.72;4927012;29;20047;-75
2021/11/11 18:35:53;;;;;;;;;;;;;;;2.87;100.00;99595.41;4886006;29;20039;-74
2021/11/11 18:38:23;;;;;;;3.28;2.92;;;;;;;2.72;100.00;99589.06;4935045;29;19957;-74
2021/11/11 18:40:50;;;;;;;5.68;4.57;;;;;;;2.64;100.00;99587.09;4934603;29;20085;-79
2021/11/11 18:43:18;;;;;;;6.05;5.45;;;;;;;2.73;100.00;99577.97;4934587;29;20035;-75
2021/11/11 18:45:43;;;;;;;5.82;4.25;;;;;;;2.56;100.00;99576.66;4934683;29;20489;-75
2021/11/11 18:48:23;;;;;;;4.47;4.15;;;;;;;2.54;100.00;99575.75;4934767;29;20060;-75
2021/11/11 18:51:09;;;;;;;7.75;4.53;;;;;;;2.50;100.00;99584.19;4934233;29;20019;-75
2021/11/11 18:53:35;;;;;;;8.98;5.03;;;;;;;2.52;100.00;99582.53;4932068;29;20034;-69
2021/11/11 18:56:03;;;;;;;3.67;3.38;;;;;;;2.45;100.00;99590.84;4926673;29;20032;-79
2021/11/11 18:58:31;;;;;;;5.82;5.30;;;;;;;2.67;100.00;99582.94;4934665;29;20386;-75
2021/11/11 19:00:59;;;;;;;11.07;6.63;;;;;;;2.72;100.00;99581.38;4924346;29;20027;-74
2021/11/11 19:03:29;;;;;;;23.90;7.38;;;;;;;2.44;100.00;99578.91;4930025;29;20024;-79
2021/11/11 19:06:02;;;;;;;6.38;4.35;;;;;;;2.17;100.00;99579.00;4934306;29;20040;-74
2021/11/11 19:08:31;;;;;;;12.27;6.18;;;;;;;2.43;100.00;99582.28;4934748;29;20028;-73
2021/11/11 19:10:57;;;;;;;8.40;6.07;;;;;;;2.41;100.00;99581.38;4934253;29;20465;-75
2021/11/11 19:13:40;;;;;;;5.82;5.25;;;;;;;2.37;100.00;99583.00;4934518;29;20035;-73
2021/11/11 19:18:52;;;;;;;6.20;5.50;;;;;;;1.93;100.00;99568.94;4934675;29;20038;-74
2021/11/11 19:21:18;;;;;;;5.78;5.20;;;;;;;1.88;100.00;99571.34;4934396;29;20378;-73
2021/11/11 19:23:45;;;;;;;5.20;4.75;;;;;;;1.68;100.00;99562.22;4931779;29;20028;-73
2021/11/11 19:26:13;;;;;;;4.80;4.22;;;;;;;1.88;100.00;99570.47;4926257;29;20051;-73
2021/11/11 19:28:39;;;;;;;4.18;3.88;;;;;;;2.37;100.00;99571.88;4934221;29;20051;-73
2021/11/11 19:31:04;;;;;;;6.97;6.47;;;;;;;2.18;100.00;99571.38;4923227;29;20082;-73
2021/11/11 19:33:29;;;;;;;6.05;5.18;;;;;;;2.12;100.00;99573.75;4930677;29;20075;-73
2021/11/11 19:36:03;;;;;;;7.18;5.53;;;;;;;2.13;100.00;99583.16;4934149;29;20489;-73
2021/11/11 19:48:54;;;;;;;5.75;4.57;;;;;;;1.84;100.00;99578.88;4934483;29;20035;-74
2021/11/11 19:53:59;;;;;;;6.07;4.88;;;;;;;1.95;100.00;99570.72;4931542;29;20028;-73